Time,TemperatureF,DewpointF,PressureIn,WindDirection,WindDirectionDegrees,WindSpeedMPH,WindSpeedGustMPH,Humidity,HourlyPrecipIn,Conditions,Clouds,dailyrainin,SoftwareType,DateUTC
2013-05-09 00:03:00,30.9,17.9,30.16,SE,135,3.7,-999.0,58,-99.99,,,0.00,Acu-Link.com,2013-05-09 08:03:00,
2013-05-09 00:18:00,32.0,18.1,30.16,ESE,112,4.2,-999.0,56,-99.99,,,0.00,Acu-Link.com,2013-05-09 08:18:00,
2013-05-09 00:33:00,30.7,17.7,30.17,ESE,112,1.7,-999.0,58,-99.99,,,0.00,Acu-Link.com,2013-05-09 08:33:00,
2013-05-09 00:49:00,30.9,17.9,30.18,SSE,157,2.2,-999.0,58,-99.99,,,0.00,Acu-Link.com,2013-05-09 08:49:00,
2013-05-09 01:04:00,29.5,19.2,30.18,NE,45,3.2,-999.0,65,-99.99,,,0.00,Acu-Link.com,2013-05-09 09:04:00,
2013-05-09 01:19:00,28.4,18.2,30.18,NE,45,1.7,-999.0,65,-99.99,,,0.00,Acu-Link.com,2013-05-09 09:19:00,
2013-05-09 01:34:00,27.5,18.3,30.18,North,0,2.7,-999.0,68,-99.99,,,0.00,Acu-Link.com,2013-05-09 09:34:00,
2013-05-09 01:49:00,28.9,19.3,30.19,North,0,2.2,-999.0,67,-99.99,,,0.00,Acu-Link.com,2013-05-09 09:49:00,
2013-05-09 02:04:00,26.1,18.7,30.19,North,0,0.0,-999.0,73,-99.99,,,0.00,Acu-Link.com,2013-05-09 10:04:00,
2013-05-09 02:20:00,25.0,18.8,30.19,North,0,3.7,-999.0,77,-99.99,,,0.00,Acu-Link.com,2013-05-09 10:20:00,
2013-05-09 02:35:00,25.0,18.5,30.19,North,0,1.1,-999.0,76,-99.99,,,0.00,Acu-Link.com,2013-05-09 10:35:00,
2013-05-09 02:50:00,24.8,18.6,30.20,North,0,0.0,-999.0,77,-99.99,,,0.00,Acu-Link.com,2013-05-09 10:50:00,
2013-05-09 03:06:00,24.6,18.4,30.20,North,0,0.0,-999.0,77,-99.99,,,0.00,Acu-Link.com,2013-05-09 11:06:00,
2013-05-09 03:21:00,23.2,17.4,30.20,North,0,0.0,-999.0,78,-99.99,,,0.00,Acu-Link.com,2013-05-09 11:21:00,
2013-05-09 03:36:00,24.1,18.3,30.20,North,0,2.2,-999.0,78,-99.99,,,0.00,Acu-Link.com,2013-05-09 11:36:00,
2013-05-09 03:52:00,23.7,18.7,30.20,North,0,0.0,-999.0,81,-99.99,,,0.00,Acu-Link.com,2013-05-09 11:52:00,
2013-05-09 04:07:00,23.2,18.3,30.20,North,0,3.2,-999.0,81,-99.99,,,0.00,Acu-Link.com,2013-05-09 12:07:00,
2013-05-09 04:22:00,22.5,17.9,30.20,North,0,1.7,-999.0,82,-99.99,,,0.00,Acu-Link.com,2013-05-09 12:22:00,
2013-05-09 04:37:00,21.9,17.5,30.20,North,0,0.0,-999.0,83,-99.99,,,0.00,Acu-Link.com,2013-05-09 12:37:00,
2013-05-09 04:52:00,21.7,17.3,30.20,North,0,2.2,-999.0,83,-99.99,,,0.00,Acu-Link.com,2013-05-09 12:52:00,
2013-05-09 05:08:00,21.9,18.1,30.21,North,0,0.0,-999.0,85,-99.99,,,0.00,Acu-Link.com,2013-05-09 13:08:00,
2013-05-09 05:23:00,22.1,18.0,30.20,North,0,0.0,-999.0,84,-99.99,,,0.00,Acu-Link.com,2013-05-09 13:23:00,
2013-05-09 05:38:00,24.1,19.4,30.21,North,0,0.0,-999.0,82,-99.99,,,0.00,Acu-Link.com,2013-05-09 13:38:00,
2013-05-09 05:54:00,27.0,20.5,30.20,North,0,1.7,-999.0,76,-99.99,,,0.00,Acu-Link.com,2013-05-09 13:54:00,
2013-05-09 06:09:00,27.7,20.5,30.20,North,0,0.0,-999.0,74,-99.99,,,0.00,Acu-Link.com,2013-05-09 14:09:00,
2013-05-09 06:24:00,28.0,20.5,30.20,North,0,0.0,-999.0,73,-99.99,,,0.00,Acu-Link.com,2013-05-09 14:24:00,
2013-05-09 06:39:00,27.5,20.6,30.19,North,0,1.7,-999.0,75,-99.99,,,0.00,Acu-Link.com,2013-05-09 14:39:00,
2013-05-09 06:55:00,31.6,23.0,30.20,North,0,0.0,-999.0,70,-99.99,,,0.00,Acu-Link.com,2013-05-09 14:55:00,
2013-05-09 07:10:00,34.7,21.9,30.20,North,0,0.0,-999.0,59,-99.99,,,0.00,Acu-Link.com,2013-05-09 15:10:00,
2013-05-09 07:26:00,37.8,24.8,30.19,NNW,337,4.7,-999.0,59,-99.99,,,0.00,Acu-Link.com,2013-05-09 15:26:00,
2013-05-09 07:41:00,36.1,24.0,30.19,WNW,292,2.2,-999.0,61,-99.99,,,0.00,Acu-Link.com,2013-05-09 15:41:00,
2013-05-09 07:56:00,41.5,26.6,30.19,NNE,22,1.1,-999.0,55,-99.99,,,0.00,Acu-Link.com,2013-05-09 15:56:00,
2013-05-09 08:12:00,43.7,25.8,30.18,SSW,202,0.0,-999.0,49,-99.99,,,0.00,Acu-Link.com,2013-05-09 16:12:00,
2013-05-09 08:27:00,46.4,26.2,30.19,SSW,202,1.7,-999.0,45,-99.99,,,0.00,Acu-Link.com,2013-05-09 16:27:00,
2013-05-09 08:42:00,40.3,24.5,30.18,South,180,1.7,-999.0,53,-99.99,,,0.00,Acu-Link.com,2013-05-09 16:42:00,
2013-05-09 08:57:00,41.5,23.8,30.17,SSE,157,2.2,-999.0,49,-99.99,,,0.00,Acu-Link.com,2013-05-09 16:57:00,
2013-05-09 09:12:00,43.2,25.3,30.16,SW,225,0.0,-999.0,49,-99.99,,,0.00,Acu-Link.com,2013-05-09 17:12:00,
2013-05-09 09:28:00,44.2,25.8,30.15,West,270,0.0,-999.0,48,-99.99,,,0.00,Acu-Link.com,2013-05-09 17:28:00,
2013-05-09 09:43:00,46.2,25.0,30.13,NNW,337,3.2,-999.0,43,-99.99,,,0.00,Acu-Link.com,2013-05-09 17:43:00,
2013-05-09 09:58:00,46.4,25.1,30.11,NW,315,3.2,-999.0,43,-99.99,,,0.00,Acu-Link.com,2013-05-09 17:58:00,
2013-05-09 10:14:00,50.7,24.1,30.09,ENE,67,4.2,-999.0,35,-99.99,,,0.00,Acu-Link.com,2013-05-09 18:14:00,
2013-05-09 10:29:00,52.5,22.8,30.09,NE,45,2.7,-999.0,31,-99.99,,,0.00,Acu-Link.com,2013-05-09 18:29:00,
2013-05-09 10:44:00,53.2,20.1,30.08,East,90,2.7,-999.0,27,-99.99,,,0.00,Acu-Link.com,2013-05-09 18:44:00,
2013-05-09 10:59:00,53.6,20.4,30.08,East,90,5.8,-999.0,27,-99.99,,,0.00,Acu-Link.com,2013-05-09 18:59:00,
2013-05-09 11:15:00,53.6,20.4,30.07,East,90,5.3,-999.0,27,-99.99,,,0.00,Acu-Link.com,2013-05-09 19:15:00,
2013-05-09 11:30:00,54.1,19.1,30.07,East,90,7.3,-999.0,25,-99.99,,,0.00,Acu-Link.com,2013-05-09 19:30:00,
2013-05-09 11:45:00,52.7,18.8,30.08,SW,225,4.2,-999.0,26,-99.99,,,0.00,Acu-Link.com,2013-05-09 19:45:00,
2013-05-09 12:01:00,54.7,19.6,30.09,NNE,22,7.8,-999.0,25,-99.99,,,0.00,Acu-Link.com,2013-05-09 20:01:00,
2013-05-09 12:16:00,55.0,20.8,30.09,SSE,157,8.3,-999.0,26,-99.99,,,0.00,Acu-Link.com,2013-05-09 20:16:00,
2013-05-09 12:31:00,54.3,18.3,30.10,SSE,157,5.8,-999.0,24,-99.99,,,0.00,Acu-Link.com,2013-05-09 20:31:00,
2013-05-09 12:47:00,55.2,19.1,30.10,ESE,112,7.3,-999.0,24,-99.99,,,0.00,Acu-Link.com,2013-05-09 20:47:00,
2013-05-09 13:02:00,55.0,18.9,30.09,SSE,157,8.3,-999.0,24,-99.99,,,0.00,Acu-Link.com,2013-05-09 21:02:00,
2013-05-09 13:17:00,55.4,19.2,30.08,SE,135,8.3,-999.0,24,-99.99,,,0.00,Acu-Link.com,2013-05-09 21:17:00,
2013-05-09 13:32:00,55.6,19.4,30.08,SSE,157,7.8,-999.0,24,-99.99,,,0.00,Acu-Link.com,2013-05-09 21:32:00,
2013-05-09 13:47:00,55.8,17.5,30.08,SSE,157,8.3,-999.0,22,-99.99,,,0.00,Acu-Link.com,2013-05-09 21:47:00,
2013-05-09 14:03:00,56.1,17.8,30.08,ESE,112,9.9,-999.0,22,-99.99,,,0.00,Acu-Link.com,2013-05-09 22:03:00,
2013-05-09 14:18:00,56.1,17.8,30.08,ESE,112,5.3,-999.0,22,-99.99,,,0.00,Acu-Link.com,2013-05-09 22:18:00,
2013-05-09 14:33:00,56.7,17.2,30.07,South,180,3.7,-999.0,21,-99.99,,,0.00,Acu-Link.com,2013-05-09 22:33:00,
2013-05-09 14:48:00,57.2,17.6,30.07,ESE,112,3.2,-999.0,21,-99.99,,,0.00,Acu-Link.com,2013-05-09 22:48:00,
2013-05-09 15:04:00,58.1,18.4,30.06,SSW,202,6.8,-999.0,21,-99.99,,,0.00,Acu-Link.com,2013-05-09 23:04:00,
2013-05-09 15:19:00,58.3,18.6,30.07,South,180,5.3,-999.0,21,-99.99,,,0.00,Acu-Link.com,2013-05-09 23:19:00,
2013-05-09 15:34:00,58.8,17.8,30.06,SSE,157,4.2,-999.0,20,-99.99,,,0.00,Acu-Link.com,2013-05-09 23:34:00,
2013-05-09 15:49:00,59.5,17.2,30.05,SSW,202,4.7,-999.0,19,-99.99,,,0.00,Acu-Link.com,2013-05-09 23:49:00,
2013-05-09 16:05:00,58.6,16.5,30.05,SE,135,4.2,-999.0,19,-99.99,,,0.00,Acu-Link.com,2013-05-10 00:05:00,
2013-05-09 16:20:00,59.5,18.4,30.04,West,270,3.7,-999.0,20,-99.99,,,0.00,Acu-Link.com,2013-05-10 00:20:00,
2013-05-09 16:35:00,59.4,18.3,30.04,South,180,3.2,-999.0,20,-99.99,,,0.00,Acu-Link.com,2013-05-10 00:35:00,
2013-05-09 16:50:00,59.7,17.4,30.03,SSW,202,8.9,-999.0,19,-99.99,,,0.00,Acu-Link.com,2013-05-10 00:50:00,
2013-05-09 17:06:00,59.7,17.4,30.03,SW,225,4.7,-999.0,19,-99.99,,,0.00,Acu-Link.com,2013-05-10 01:06:00,
2013-05-09 17:21:00,59.7,17.4,30.02,SSW,202,4.7,-999.0,19,-99.99,,,0.00,Acu-Link.com,2013-05-10 01:21:00,
2013-05-09 17:36:00,60.4,18.0,30.02,West,270,1.1,-999.0,19,-99.99,,,0.00,Acu-Link.com,2013-05-10 01:36:00,
2013-05-09 17:51:00,59.4,17.1,30.01,SW,225,4.2,-999.0,19,-99.99,,,0.00,Acu-Link.com,2013-05-10 01:51:00,
2013-05-09 18:06:00,58.6,16.5,30.00,SW,225,4.2,-999.0,19,-99.99,,,0.00,Acu-Link.com,2013-05-10 02:06:00,
2013-05-09 18:22:00,58.8,17.8,30.01,WSW,247,7.3,-999.0,20,-99.99,,,0.00,Acu-Link.com,2013-05-10 02:22:00,
2013-05-09 18:37:00,58.3,17.4,30.01,SW,225,3.7,-999.0,20,-99.99,,,0.00,Acu-Link.com,2013-05-10 02:37:00,
2013-05-09 18:52:00,57.9,17.1,30.01,SSW,202,4.7,-999.0,20,-99.99,,,0.00,Acu-Link.com,2013-05-10 02:52:00,
2013-05-09 19:07:00,58.6,17.7,30.01,WSW,247,4.2,-999.0,20,-99.99,,,0.00,Acu-Link.com,2013-05-10 03:07:00,
2013-05-09 19:22:00,59.4,18.3,30.01,SW,225,3.7,-999.0,20,-99.99,,,0.00,Acu-Link.com,2013-05-10 03:22:00,
2013-05-09 19:38:00,59.4,18.3,30.01,West,270,5.3,-999.0,20,-99.99,,,0.00,Acu-Link.com,2013-05-10 03:38:00,
2013-05-09 19:53:00,58.5,18.7,29.99,NNW,337,4.2,-999.0,21,-99.99,,,0.00,Acu-Link.com,2013-05-10 03:53:00,
2013-05-09 20:08:00,57.4,19.9,30.01,WNW,292,3.7,-999.0,23,-99.99,,,0.00,Acu-Link.com,2013-05-10 04:08:00,
2013-05-09 20:23:00,57.4,19.9,30.00,WNW,292,2.7,-999.0,23,-99.99,,,0.00,Acu-Link.com,2013-05-10 04:23:00,
2013-05-09 20:39:00,56.8,20.4,30.01,NNW,337,2.2,-999.0,24,-99.99,,,0.00,Acu-Link.com,2013-05-10 04:39:00,
2013-05-09 20:54:00,55.8,20.5,30.02,NNW,337,0.0,-999.0,25,-99.99,,,0.00,Acu-Link.com,2013-05-10 04:54:00,
2013-05-09 21:09:00,54.5,19.4,30.01,North,0,0.0,-999.0,25,-99.99,,,0.00,Acu-Link.com,2013-05-10 05:09:00,
2013-05-09 21:24:00,53.8,19.7,30.01,SW,225,2.7,-999.0,26,-99.99,,,0.00,Acu-Link.com,2013-05-10 05:24:00,
2013-05-09 21:39:00,53.4,21.1,30.01,WSW,247,2.2,-999.0,28,-99.99,,,0.00,Acu-Link.com,2013-05-10 05:39:00,
2013-05-09 21:55:00,52.2,20.1,30.01,SSW,202,0.0,-999.0,28,-99.99,,,0.00,Acu-Link.com,2013-05-10 05:55:00,
2013-05-09 22:10:00,51.3,21.7,30.01,SW,225,2.2,-999.0,31,-99.99,,,0.00,Acu-Link.com,2013-05-10 06:10:00,
2013-05-09 22:25:00,49.8,21.9,30.02,SW,225,0.0,-999.0,33,-99.99,,,0.00,Acu-Link.com,2013-05-10 06:25:00,
2013-05-09 22:40:00,47.7,23.4,30.02,South,180,0.0,-999.0,38,-99.99,,,0.00,Acu-Link.com,2013-05-10 06:40:00,
2013-05-09 22:55:00,46.6,22.4,30.02,South,180,0.0,-999.0,38,-99.99,,,0.00,Acu-Link.com,2013-05-10 06:55:00,
2013-05-09 23:11:00,45.5,22.6,30.02,South,180,0.0,-999.0,40,-99.99,,,0.00,Acu-Link.com,2013-05-10 07:11:00,
2013-05-09 23:26:00,44.6,24.1,30.03,South,180,0.0,-999.0,44,-99.99,,,0.00,Acu-Link.com,2013-05-10 07:26:00,
2013-05-09 23:42:00,43.9,21.7,30.03,ESE,112,1.7,-999.0,41,-99.99,,,0.00,Acu-Link.com,2013-05-10 07:42:00,
2013-05-09 23:57:00,43.3,21.2,30.04,ESE,112,0.0,-999.0,41,-99.99,,,0.00,Acu-Link.com,2013-05-10 07:57:00,